sensor_id;sensor_type;location;lat;lon;timestamp;pressure;altitude;pressure_sealevel;temperature;humidity
73692;BME280;61996;49.910;35.562;2023-02-02T00:00:48;98497.66;;;20.99;35.39
73692;BME280;61996;49.910;35.562;2023-02-02T00:03:52;98489.59;;;21.07;35.38
73692;BME280;61996;49.910;35.562;2023-02-02T00:06:56;98487.16;;;20.97;35.66
73692;BME280;61996;49.910;35.562;2023-02-02T00:09:59;98489.25;;;20.87;35.70
73692;BME280;61996;49.910;35.562;2023-02-02T00:13:02;98491.63;;;20.82;35.64
73692;BME280;61996;49.910;35.562;2023-02-02T00:19:42;98466.97;;;20.72;36.09
73692;BME280;61996;49.910;35.562;2023-02-02T00:22:47;98473.22;;;20.64;35.90
73692;BME280;61996;49.910;35.562;2023-02-02T00:25:49;98469.53;;;20.65;36.13
73692;BME280;61996;49.910;35.562;2023-02-02T00:28:52;98468.72;;;20.65;35.94
73692;BME280;61996;49.910;35.562;2023-02-02T00:31:55;98465.91;;;20.58;36.17
73692;BME280;61996;49.910;35.562;2023-02-02T00:34:59;98468.97;;;20.55;36.27
73692;BME280;61996;49.910;35.562;2023-02-02T00:38:02;98468.00;;;20.48;36.19
73692;BME280;61996;49.910;35.562;2023-02-02T00:41:05;98452.34;;;20.45;36.20
73692;BME280;61996;49.910;35.562;2023-02-02T00:44:08;98450.63;;;20.44;36.26
73692;BME280;61996;49.910;35.562;2023-02-02T00:47:29;98444.00;;;20.40;36.16
73692;BME280;61996;49.910;35.562;2023-02-02T00:50:33;98445.16;;;20.37;36.19
73692;BME280;61996;49.910;35.562;2023-02-02T00:53:36;98450.34;;;20.39;36.17
73692;BME280;61996;49.910;35.562;2023-02-02T00:56:39;98452.22;;;20.30;36.39
73692;BME280;61996;49.910;35.562;2023-02-02T00:59:42;98460.22;;;20.30;36.53
73692;BME280;61996;49.910;35.562;2023-02-02T01:02:45;98449.44;;;20.23;36.48
73692;BME280;61996;49.910;35.562;2023-02-02T01:05:49;98449.78;;;20.20;36.60
73692;BME280;61996;49.910;35.562;2023-02-02T01:08:52;98445.16;;;20.14;36.74
73692;BME280;61996;49.910;35.562;2023-02-02T01:11:55;98446.53;;;20.10;36.78
73692;BME280;61996;49.910;35.562;2023-02-02T01:14:58;98450.38;;;20.08;36.89
73692;BME280;61996;49.910;35.562;2023-02-02T01:18:01;98448.25;;;20.03;36.95
73692;BME280;61996;49.910;35.562;2023-02-02T01:21:06;98443.22;;;20.00;36.84
73692;BME280;61996;49.910;35.562;2023-02-02T01:24:09;98442.09;;;19.94;36.86
73692;BME280;61996;49.910;35.562;2023-02-02T01:27:12;98442.63;;;19.90;36.92
73692;BME280;61996;49.910;35.562;2023-02-02T01:30:15;98444.81;;;19.86;36.90
73692;BME280;61996;49.910;35.562;2023-02-02T01:33:18;98440.97;;;19.81;36.97
73692;BME280;61996;49.910;35.562;2023-02-02T01:36:22;98439.50;;;19.78;37.00
73692;BME280;61996;49.910;35.562;2023-02-02T01:39:25;98441.03;;;19.73;37.14
73692;BME280;61996;49.910;35.562;2023-02-02T01:42:28;98435.69;;;19.73;37.09
73692;BME280;61996;49.910;35.562;2023-02-02T01:45:31;98446.72;;;19.69;37.16
73692;BME280;61996;49.910;35.562;2023-02-02T01:48:34;98441.38;;;19.69;37.11
73692;BME280;61996;49.910;35.562;2023-02-02T01:51:39;98443.38;;;19.67;37.11
73692;BME280;61996;49.910;35.562;2023-02-02T01:54:44;98435.38;;;19.67;37.22
73692;BME280;61996;49.910;35.562;2023-02-02T01:57:49;98435.72;;;19.64;37.11
73692;BME280;61996;49.910;35.562;2023-02-02T02:00:53;98433.25;;;19.63;37.11
73692;BME280;61996;49.910;35.562;2023-02-02T02:03:56;98423.59;;;19.62;37.09
73692;BME280;61996;49.910;35.562;2023-02-02T02:07:00;98430.06;;;19.59;37.23
73692;BME280;61996;49.910;35.562;2023-02-02T02:10:04;98433.75;;;19.58;37.20
73692;BME280;61996;49.910;35.562;2023-02-02T02:13:07;98437.56;;;19.56;37.29
73692;BME280;61996;49.910;35.562;2023-02-02T02:16:12;98433.41;;;19.53;37.42
73692;BME280;61996;49.910;35.562;2023-02-02T02:22:43;98429.44;;;19.49;37.41
73692;BME280;61996;49.910;35.562;2023-02-02T02:26:18;98429.75;;;19.46;37.35
73692;BME280;61996;49.910;35.562;2023-02-02T02:30:00;98424.78;;;19.43;37.38
73692;BME280;61996;49.910;35.562;2023-02-02T02:33:06;98438.09;;;19.43;37.42
73692;BME280;61996;49.910;35.562;2023-02-02T02:36:14;98430.44;;;19.40;37.44
73692;BME280;61996;49.910;35.562;2023-02-02T02:39:19;98427.75;;;19.40;37.50
73692;BME280;61996;49.910;35.562;2023-02-02T02:42:25;98430.59;;;19.38;37.32
73692;BME280;61996;49.910;35.562;2023-02-02T02:45:30;98433.81;;;19.34;37.53
73692;BME280;61996;49.910;35.562;2023-02-02T02:48:35;98433.13;;;19.32;37.34
73692;BME280;61996;49.910;35.562;2023-02-02T02:51:40;98437.81;;;19.30;37.56
73692;BME280;61996;49.910;35.562;2023-02-02T02:54:44;98435.50;;;19.27;37.30
73692;BME280;61996;49.910;35.562;2023-02-02T03:01:12;98441.50;;;19.21;37.64
73692;BME280;61996;49.910;35.562;2023-02-02T03:04:21;98447.78;;;19.36;37.39
73692;BME280;61996;49.910;35.562;2023-02-02T03:07:28;98447.75;;;19.44;37.44
73692;BME280;61996;49.910;35.562;2023-02-02T03:10:33;98453.41;;;19.49;37.14
73692;BME280;61996;49.910;35.562;2023-02-02T03:13:37;98453.91;;;19.61;36.89
73692;BME280;61996;49.910;35.562;2023-02-02T03:16:41;98447.72;;;19.68;36.87
73692;BME280;61996;49.910;35.562;2023-02-02T03:19:45;98444.47;;;19.81;36.61
73692;BME280;61996;49.910;35.562;2023-02-02T03:22:48;98453.31;;;19.90;36.53
73692;BME280;61996;49.910;35.562;2023-02-02T03:25:51;98456.25;;;19.95;36.38
73692;BME280;61996;49.910;35.562;2023-02-02T03:28:54;98459.06;;;20.02;36.12
73692;BME280;61996;49.910;35.562;2023-02-02T03:31:57;98458.91;;;20.03;36.07
73692;BME280;61996;49.910;35.562;2023-02-02T03:35:01;98458.56;;;20.06;36.01
73692;BME280;61996;49.910;35.562;2023-02-02T03:38:04;98454.16;;;20.13;35.97
73692;BME280;61996;49.910;35.562;2023-02-02T03:41:07;98449.19;;;20.10;35.96
73692;BME280;61996;49.910;35.562;2023-02-02T03:44:11;98460.34;;;20.14;35.82
73692;BME280;61996;49.910;35.562;2023-02-02T03:47:14;98448.78;;;20.21;35.66
73692;BME280;61996;49.910;35.562;2023-02-02T03:50:18;98458.16;;;20.17;35.87
73692;BME280;61996;49.910;35.562;2023-02-02T03:53:21;98458.44;;;20.22;35.73
73692;BME280;61996;49.910;35.562;2023-02-02T03:56:24;98457.28;;;20.25;35.62
73692;BME280;61996;49.910;35.562;2023-02-02T03:59:26;98466.06;;;20.34;35.51
73692;BME280;61996;49.910;35.562;2023-02-02T04:02:29;98474.72;;;20.36;35.78
73692;BME280;61996;49.910;35.562;2023-02-02T04:05:33;98476.09;;;20.32;36.00
73692;BME280;61996;49.910;35.562;2023-02-02T04:08:36;98485.81;;;20.24;35.79
73692;BME280;61996;49.910;35.562;2023-02-02T04:11:39;98482.59;;;20.29;35.83
73692;BME280;61996;49.910;35.562;2023-02-02T04:14:42;98494.78;;;20.32;36.08
73692;BME280;61996;49.910;35.562;2023-02-02T04:17:45;98491.44;;;20.30;35.88
73692;BME280;61996;49.910;35.562;2023-02-02T04:20:53;98487.94;;;20.29;35.90
73692;BME280;61996;49.910;35.562;2023-02-02T04:23:57;98493.47;;;20.27;35.83
73692;BME280;61996;49.910;35.562;2023-02-02T04:27:00;98495.94;;;20.29;35.86
73692;BME280;61996;49.910;35.562;2023-02-02T04:30:03;98492.59;;;20.35;35.70
73692;BME280;61996;49.910;35.562;2023-02-02T04:33:06;98496.44;;;20.33;35.64
73692;BME280;61996;49.910;35.562;2023-02-02T04:36:11;98492.91;;;20.40;35.49
73692;BME280;61996;49.910;35.562;2023-02-02T04:39:14;98502.06;;;20.46;35.46
73692;BME280;61996;49.910;35.562;2023-02-02T04:42:17;98505.41;;;20.40;35.55
73692;BME280;61996;49.910;35.562;2023-02-02T04:45:20;98502.38;;;20.43;35.64
73692;BME280;61996;49.910;35.562;2023-02-02T04:48:23;98503.56;;;20.48;35.51
73692;BME280;61996;49.910;35.562;2023-02-02T04:51:27;98500.06;;;20.48;35.48
73692;BME280;61996;49.910;35.562;2023-02-02T04:54:30;98509.06;;;20.47;35.60
73692;BME280;61996;49.910;35.562;2023-02-02T04:57:33;98513.22;;;20.49;35.49
73692;BME280;61996;49.910;35.562;2023-02-02T05:00:36;98518.75;;;20.48;35.47
73692;BME280;61996;49.910;35.562;2023-02-02T05:03:39;98511.22;;;20.51;35.32
73692;BME280;61996;49.910;35.562;2023-02-02T05:06:43;98508.19;;;20.55;35.33
73692;BME280;61996;49.910;35.562;2023-02-02T05:09:46;98513.53;;;20.55;35.30
73692;BME280;61996;49.910;35.562;2023-02-02T05:12:51;98518.88;;;20.55;35.43
73692;BME280;61996;49.910;35.562;2023-02-02T05:15:54;98512.53;;;20.56;35.21
73692;BME280;61996;49.910;35.562;2023-02-02T05:18:57;98519.88;;;20.53;35.37
73692;BME280;61996;49.910;35.562;2023-02-02T05:22:01;98518.34;;;20.59;35.17
73692;BME280;61996;49.910;35.562;2023-02-02T05:25:04;98514.00;;;20.58;35.37
73692;BME280;61996;49.910;35.562;2023-02-02T05:28:07;98520.06;;;20.52;35.34
73692;BME280;61996;49.910;35.562;2023-02-02T05:31:10;98517.03;;;20.55;35.29
73692;BME280;61996;49.910;35.562;2023-02-02T05:34:13;98520.22;;;20.50;35.43
73692;BME280;61996;49.910;35.562;2023-02-02T05:37:17;98526.06;;;20.54;35.45
73692;BME280;61996;49.910;35.562;2023-02-02T08:55:16;98632.69;;;18.10;37.54
73692;BME280;61996;49.910;35.562;2023-02-02T08:58:19;98628.72;;;18.22;38.03
73692;BME280;61996;49.910;35.562;2023-02-02T09:01:22;98624.16;;;18.40;37.45
73692;BME280;61996;49.910;35.562;2023-02-02T09:04:26;98623.72;;;18.53;37.11
73692;BME280;61996;49.910;35.562;2023-02-02T09:07:29;98613.50;;;18.74;36.81
73692;BME280;61996;49.910;35.562;2023-02-02T09:10:35;98615.88;;;18.85;36.36
73692;BME280;61996;49.910;35.562;2023-02-02T09:13:38;98615.53;;;18.97;36.42
73692;BME280;61996;49.910;35.562;2023-02-02T09:16:41;98613.41;;;19.08;36.22
73692;BME280;61996;49.910;35.562;2023-02-02T09:19:44;98614.75;;;19.12;36.08
73692;BME280;61996;49.910;35.562;2023-02-02T09:22:47;98605.41;;;19.16;35.95
73692;BME280;61996;49.910;35.562;2023-02-02T09:25:51;98603.06;;;19.30;36.08
73692;BME280;61996;49.910;35.562;2023-02-02T09:28:55;98609.06;;;19.32;35.90
73692;BME280;61996;49.910;35.562;2023-02-02T09:31:58;98608.41;;;19.38;35.82
73692;BME280;61996;49.910;35.562;2023-02-02T09:35:01;98602.41;;;19.44;35.81
73692;BME280;61996;49.910;35.562;2023-02-02T09:38:04;98600.06;;;19.33;36.17
73692;BME280;61996;49.910;35.562;2023-02-02T09:41:18;98602.09;;;19.47;35.67
73692;BME280;61996;49.910;35.562;2023-02-02T09:44:44;98613.25;;;19.42;35.81
73692;BME280;61996;49.910;35.562;2023-02-02T09:47:51;98610.75;;;19.49;35.95
73692;BME280;61996;49.910;35.562;2023-02-02T09:50:56;98611.75;;;19.56;35.63
73692;BME280;61996;49.910;35.562;2023-02-02T09:54:01;98605.25;;;19.59;35.79
73692;BME280;61996;49.910;35.562;2023-02-02T09:57:11;98607.25;;;19.57;35.72
73692;BME280;61996;49.910;35.562;2023-02-02T10:00:18;98604.25;;;19.60;35.66
73692;BME280;61996;49.910;35.562;2023-02-02T10:03:28;98591.06;;;19.50;35.70
73692;BME280;61996;49.910;35.562;2023-02-02T10:06:34;98605.09;;;19.60;35.91
73692;BME280;61996;49.910;35.562;2023-02-02T10:09:39;98594.88;;;19.80;35.39
73692;BME280;61996;49.910;35.562;2023-02-02T10:12:48;98589.06;;;19.85;35.69
73692;BME280;61996;49.910;35.562;2023-02-02T10:15:55;98589.75;;;19.62;35.81
73692;BME280;61996;49.910;35.562;2023-02-02T10:19:02;98589.59;;;19.64;35.86
73692;BME280;61996;49.910;35.562;2023-02-02T10:22:08;98593.91;;;19.65;35.97
73692;BME280;61996;49.910;35.562;2023-02-02T10:25:13;98586.44;;;19.68;35.87
73692;BME280;61996;49.910;35.562;2023-02-02T10:28:19;98589.94;;;19.69;35.74
73692;BME280;61996;49.910;35.562;2023-02-02T10:31:30;98597.56;;;19.72;35.82
73692;BME280;61996;49.910;35.562;2023-02-02T10:34:39;98597.06;;;19.77;35.59
73692;BME280;61996;49.910;35.562;2023-02-02T10:37:44;98596.06;;;19.78;35.58
73692;BME280;61996;49.910;35.562;2023-02-02T10:40:53;98599.72;;;19.85;35.38
73692;BME280;61996;49.910;35.562;2023-02-02T10:44:03;98597.88;;;19.85;35.43
73692;BME280;61996;49.910;35.562;2023-02-02T10:47:09;98598.03;;;19.92;35.42
73692;BME280;61996;49.910;35.562;2023-02-02T10:50:15;98596.97;;;20.09;35.35
73692;BME280;61996;49.910;35.562;2023-02-02T10:53:18;98601.84;;;20.06;35.84
73692;BME280;61996;49.910;35.562;2023-02-02T10:56:24;98597.31;;;20.14;36.01
73692;BME280;61996;49.910;35.562;2023-02-02T10:59:31;98596.94;;;20.25;35.67
73692;BME280;61996;49.910;35.562;2023-02-02T11:02:35;98594.81;;;20.13;35.97
73692;BME280;61996;49.910;35.562;2023-02-02T11:05:38;98597.91;;;20.33;35.57
73692;BME280;61996;49.910;35.562;2023-02-02T11:08:58;98591.28;;;20.20;36.01
73692;BME280;61996;49.910;35.562;2023-02-02T11:12:05;98596.00;;;20.10;36.28
73692;BME280;61996;49.910;35.562;2023-02-02T11:15:23;98593.47;;;20.17;36.25
73692;BME280;61996;49.910;35.562;2023-02-02T11:18:27;98600.97;;;20.13;36.23
73692;BME280;61996;49.910;35.562;2023-02-02T11:21:31;98601.63;;;20.15;36.10
73692;BME280;61996;49.910;35.562;2023-02-02T11:24:39;98605.97;;;20.16;36.01
73692;BME280;61996;49.910;35.562;2023-02-02T11:27:42;98603.47;;;20.15;36.08
73692;BME280;61996;49.910;35.562;2023-02-02T11:30:48;98601.31;;;20.18;35.82
73692;BME280;61996;49.910;35.562;2023-02-02T11:33:53;98610.13;;;20.19;36.05
73692;BME280;61996;49.910;35.562;2023-02-02T11:37:12;98604.97;;;20.17;35.92
73692;BME280;61996;49.910;35.562;2023-02-02T11:40:17;98604.44;;;20.22;35.87
73692;BME280;61996;49.910;35.562;2023-02-02T11:43:24;98605.63;;;20.19;35.73
73692;BME280;61996;49.910;35.562;2023-02-02T11:46:30;98609.97;;;20.20;35.67
73692;BME280;61996;49.910;35.562;2023-02-02T11:49:37;98615.31;;;20.20;35.77
73692;BME280;61996;49.910;35.562;2023-02-02T11:52:43;98604.63;;;20.20;35.81
73692;BME280;61996;49.910;35.562;2023-02-02T11:55:47;98616.63;;;20.24;35.43
73692;BME280;61996;49.910;35.562;2023-02-02T11:58:51;98614.78;;;20.25;35.69
73692;BME280;61996;49.910;35.562;2023-02-02T12:08:40;98621.28;;;20.31;35.53
73692;BME280;61996;49.910;35.562;2023-02-02T12:11:47;98618.63;;;20.31;35.42
73692;BME280;61996;49.910;35.562;2023-02-02T12:14:57;98631.09;;;20.30;35.42
73692;BME280;61996;49.910;35.562;2023-02-02T12:18:06;98623.38;;;20.43;35.38
73692;BME280;61996;49.910;35.562;2023-02-02T12:21:15;98624.63;;;20.33;35.52
73692;BME280;61996;49.910;35.562;2023-02-02T12:24:28;98631.56;;;20.50;35.87
73692;BME280;61996;49.910;35.562;2023-02-02T12:27:34;98635.94;;;20.82;36.97
73692;BME280;61996;49.910;35.562;2023-02-02T12:30:42;98632.91;;;20.54;36.12
73692;BME280;61996;49.910;35.562;2023-02-02T12:33:50;98628.44;;;20.46;36.61
73692;BME280;61996;49.910;35.562;2023-02-02T12:36:56;98628.66;;;20.68;36.26
73692;BME280;61996;49.910;35.562;2023-02-02T12:40:12;98637.56;;;20.60;35.95
73692;BME280;61996;49.910;35.562;2023-02-02T12:43:20;98631.41;;;20.43;36.63
73692;BME280;61996;49.910;35.562;2023-02-02T12:46:28;98636.59;;;20.37;36.27
73692;BME280;61996;49.910;35.562;2023-02-02T12:49:49;98631.09;;;20.30;36.43
73692;BME280;61996;49.910;35.562;2023-02-02T12:53:00;98641.78;;;20.30;36.32
73692;BME280;61996;49.910;35.562;2023-02-02T12:56:17;98647.66;;;20.25;36.44
73692;BME280;61996;49.910;35.562;2023-02-02T12:59:28;98649.50;;;20.25;36.41
73692;BME280;61996;49.910;35.562;2023-02-02T13:02:37;98642.00;;;20.20;36.54
73692;BME280;61996;49.910;35.562;2023-02-02T13:05:49;98652.50;;;20.22;36.39
73692;BME280;61996;49.910;35.562;2023-02-02T13:09:00;98647.38;;;20.12;36.41
73692;BME280;61996;49.910;35.562;2023-02-02T13:12:07;98653.03;;;20.09;36.56
73692;BME280;61996;49.910;35.562;2023-02-02T13:15:11;98661.38;;;20.06;36.47
73692;BME280;61996;49.910;35.562;2023-02-02T13:18:17;98655.06;;;19.99;36.69
73692;BME280;61996;49.910;35.562;2023-02-02T13:21:21;98656.41;;;20.03;36.55
73692;BME280;61996;49.910;35.562;2023-02-02T13:24:26;98665.56;;;19.92;36.64
73692;BME280;61996;49.910;35.562;2023-02-02T13:27:32;98661.59;;;19.96;36.52
73692;BME280;61996;49.910;35.562;2023-02-02T13:30:36;98668.22;;;20.01;36.57
73692;BME280;61996;49.910;35.562;2023-02-02T13:33:40;98667.06;;;20.03;36.44
73692;BME280;61996;49.910;35.562;2023-02-02T13:36:47;98669.91;;;20.10;36.25
73692;BME280;61996;49.910;35.562;2023-02-02T13:39:53;98668.03;;;20.18;36.12
73692;BME280;61996;49.910;35.562;2023-02-02T13:43:01;98664.00;;;20.22;36.00
73692;BME280;61996;49.910;35.562;2023-02-02T13:46:12;98668.00;;;20.26;36.08
73692;BME280;61996;49.910;35.562;2023-02-02T13:49:19;98668.00;;;20.26;35.91
73692;BME280;61996;49.910;35.562;2023-02-02T13:52:32;98676.34;;;20.32;35.81
73692;BME280;61996;49.910;35.562;2023-02-02T13:55:49;98678.19;;;20.31;35.85
73692;BME280;61996;49.910;35.562;2023-02-02T13:59:03;98678.34;;;20.38;35.97
73692;BME280;61996;49.910;35.562;2023-02-02T14:02:12;98680.84;;;20.47;35.46
73692;BME280;61996;49.910;35.562;2023-02-02T14:05:22;98694.50;;;20.44;35.62
73692;BME280;61996;49.910;35.562;2023-02-02T14:08:26;98691.84;;;20.44;35.48
73692;BME280;61996;49.910;35.562;2023-02-02T14:11:30;98700.84;;;20.51;35.49
73692;BME280;61996;49.910;35.562;2023-02-02T14:14:36;98701.31;;;20.63;35.18
73692;BME280;61996;49.910;35.562;2023-02-02T14:17:53;98702.19;;;20.95;35.06
73692;BME280;61996;49.910;35.562;2023-02-02T14:20:56;98704.16;;;20.62;35.79
73692;BME280;61996;49.910;35.562;2023-02-02T14:23:59;98704.19;;;20.53;35.98
73692;BME280;61996;49.910;35.562;2023-02-02T14:27:12;98705.34;;;20.51;36.15
73692;BME280;61996;49.910;35.562;2023-02-02T14:30:32;98712.03;;;20.55;35.97
73692;BME280;61996;49.910;35.562;2023-02-02T14:33:38;98707.69;;;20.54;35.88
73692;BME280;61996;49.910;35.562;2023-02-02T14:36:49;98708.31;;;20.64;35.65
73692;BME280;61996;49.910;35.562;2023-02-02T14:39:57;98712.16;;;20.62;35.94
73692;BME280;61996;49.910;35.562;2023-02-02T14:43:07;98716.81;;;20.68;35.57
73692;BME280;61996;49.910;35.562;2023-02-02T14:46:36;98719.16;;;20.63;35.55
73692;BME280;61996;49.910;35.562;2023-02-02T14:49:39;98719.16;;;20.63;35.46
73692;BME280;61996;49.910;35.562;2023-02-02T14:52:42;98716.03;;;20.59;35.55
73692;BME280;61996;49.910;35.562;2023-02-02T14:55:52;98724.03;;;20.59;35.62
73692;BME280;61996;49.910;35.562;2023-02-02T14:58:57;98721.84;;;20.63;35.59
73692;BME280;61996;49.910;35.562;2023-02-02T15:02:12;98721.16;;;20.69;35.45
73692;BME280;61996;49.910;35.562;2023-02-02T15:05:35;98738.16;;;20.76;35.49
73692;BME280;61996;49.910;35.562;2023-02-02T15:08:42;98735.34;;;20.69;35.54
73692;BME280;61996;49.910;35.562;2023-02-02T15:15:12;98742.03;;;20.65;35.53
73692;BME280;61996;49.910;35.562;2023-02-02T15:18:20;98733.69;;;20.68;35.65
73692;BME280;61996;49.910;35.562;2023-02-02T15:21:26;98741.69;;;20.68;35.50
73692;BME280;61996;49.910;35.562;2023-02-02T15:24:30;98752.06;;;20.63;35.60
73692;BME280;61996;49.910;35.562;2023-02-02T15:27:37;98748.53;;;20.71;35.51
73692;BME280;61996;49.910;35.562;2023-02-02T15:30:57;98758.56;;;20.69;35.62
73692;BME280;61996;49.910;35.562;2023-02-02T15:34:08;98763.56;;;20.64;35.77
73692;BME280;61996;49.910;35.562;2023-02-02T15:37:13;98765.97;;;20.98;35.62
73692;BME280;61996;49.910;35.562;2023-02-02T15:40:19;98753.19;;;20.77;35.40
73692;BME280;61996;49.910;35.562;2023-02-02T15:43:23;98772.25;;;20.74;35.49
73692;BME280;61996;49.910;35.562;2023-02-02T15:46:30;98763.19;;;20.83;35.25
73692;BME280;61996;49.910;35.562;2023-02-02T15:49:36;98761.56;;;20.74;35.48
73692;BME280;61996;49.910;35.562;2023-02-02T15:52:43;98762.22;;;20.76;35.53
73692;BME280;61996;49.910;35.562;2023-02-02T15:55:47;98766.22;;;20.80;35.45
73692;BME280;61996;49.910;35.562;2023-02-02T15:58:50;98778.72;;;20.88;35.50
73692;BME280;61996;49.910;35.562;2023-02-02T16:01:55;98785.72;;;20.89;35.35
73692;BME280;61996;49.910;35.562;2023-02-02T16:05:06;98785.53;;;20.90;35.48
73692;BME280;61996;49.910;35.562;2023-02-02T16:08:25;98793.59;;;20.82;35.95
73692;BME280;61996;49.910;35.562;2023-02-02T16:11:29;98788.91;;;20.84;36.01
73692;BME280;61996;49.910;35.562;2023-02-02T16:14:32;98795.25;;;20.83;36.31
73692;BME280;61996;49.910;35.562;2023-02-02T16:17:40;98800.94;;;20.88;35.90
73692;BME280;61996;49.910;35.562;2023-02-02T16:20:44;98797.41;;;20.88;35.66
73692;BME280;61996;49.910;35.562;2023-02-02T16:23:48;98809.13;;;20.87;35.94
73692;BME280;61996;49.910;35.562;2023-02-02T16:26:52;98814.13;;;20.82;36.08
73692;BME280;61996;49.910;35.562;2023-02-02T16:29:57;98814.44;;;20.95;35.98
73692;BME280;61996;49.910;35.562;2023-02-02T16:36:21;98819.63;;;20.88;35.82
73692;BME280;61996;49.910;35.562;2023-02-02T16:39:26;98824.81;;;20.90;35.92
73692;BME280;61996;49.910;35.562;2023-02-02T16:42:29;98822.13;;;20.90;35.85
73692;BME280;61996;49.910;35.562;2023-02-02T16:45:38;98829.31;;;20.89;35.65
73692;BME280;61996;49.910;35.562;2023-02-02T16:48:44;98825.81;;;20.89;35.68
73692;BME280;61996;49.910;35.562;2023-02-02T16:52:08;98835.47;;;20.98;35.67
73692;BME280;61996;49.910;35.562;2023-02-02T16:55:14;98833.31;;;20.93;35.84
73692;BME280;61996;49.910;35.562;2023-02-02T16:58:18;98830.66;;;20.93;35.67
73692;BME280;61996;49.910;35.562;2023-02-02T17:01:29;98826.47;;;20.91;35.72
73692;BME280;61996;49.910;35.562;2023-02-02T17:04:33;98831.19;;;20.80;35.59
73692;BME280;61996;49.910;35.562;2023-02-02T17:07:38;98828.34;;;20.82;35.84
73692;BME280;61996;49.910;35.562;2023-02-02T17:10:42;98829.66;;;20.78;35.85
73692;BME280;61996;49.910;35.562;2023-02-02T17:13:48;98838.69;;;20.77;35.99
73692;BME280;61996;49.910;35.562;2023-02-02T17:16:51;98843.38;;;20.75;35.87
73692;BME280;61996;49.910;35.562;2023-02-02T17:19:54;98846.38;;;20.72;35.97
73692;BME280;61996;49.910;35.562;2023-02-02T17:22:58;98840.88;;;20.65;36.03
73692;BME280;61996;49.910;35.562;2023-02-02T17:26:03;98840.22;;;20.63;36.10
73692;BME280;61996;49.910;35.562;2023-02-02T17:29:07;98845.41;;;20.57;36.23
73692;BME280;61996;49.910;35.562;2023-02-02T17:32:11;98847.91;;;20.58;36.33
73692;BME280;61996;49.910;35.562;2023-02-02T17:35:14;98839.91;;;20.66;36.26
73692;BME280;61996;49.910;35.562;2023-02-02T17:38:19;98845.25;;;20.50;36.24
73692;BME280;61996;49.910;35.562;2023-02-02T17:41:21;98848.25;;;20.55;36.29
73692;BME280;61996;49.910;35.562;2023-02-02T17:44:24;98846.22;;;20.41;36.87
73692;BME280;61996;49.910;35.562;2023-02-02T17:47:27;98855.41;;;20.38;36.76
73692;BME280;61996;49.910;35.562;2023-02-02T17:50:31;98850.09;;;20.46;36.51
73692;BME280;61996;49.910;35.562;2023-02-02T17:53:35;98857.91;;;20.32;36.65
73692;BME280;61996;49.910;35.562;2023-02-02T17:56:38;98853.06;;;20.35;36.89
73692;BME280;61996;49.910;35.562;2023-02-02T17:59:41;98856.25;;;20.31;37.39
73692;BME280;61996;49.910;35.562;2023-02-02T18:02:44;98856.75;;;20.26;38.82
73692;BME280;61996;49.910;35.562;2023-02-02T18:05:48;98857.56;;;20.26;39.39
73692;BME280;61996;49.910;35.562;2023-02-02T18:08:52;98860.91;;;20.29;39.63
73692;BME280;61996;49.910;35.562;2023-02-02T18:11:55;98856.56;;;20.27;38.95
73692;BME280;61996;49.910;35.562;2023-02-02T18:14:58;98862.59;;;20.54;37.94
73692;BME280;61996;49.910;35.562;2023-02-02T18:18:01;98862.59;;;20.54;37.62
73692;BME280;61996;49.910;35.562;2023-02-02T18:21:06;98874.59;;;20.58;37.75
73692;BME280;61996;49.910;35.562;2023-02-02T18:24:12;98877.44;;;20.65;37.48
73692;BME280;61996;49.910;35.562;2023-02-02T18:27:16;98876.28;;;20.67;37.37
73692;BME280;61996;49.910;35.562;2023-02-02T18:30:20;98882.81;;;20.73;37.15
73692;BME280;61996;49.910;35.562;2023-02-02T18:33:23;98872.94;;;20.73;36.62
73692;BME280;61996;49.910;35.562;2023-02-02T18:36:26;98872.94;;;20.82;36.57
73692;BME280;61996;49.910;35.562;2023-02-02T18:39:30;98871.09;;;20.82;36.67
73692;BME280;61996;49.910;35.562;2023-02-02T18:42:34;98874.59;;;20.83;36.58
73692;BME280;61996;49.910;35.562;2023-02-02T18:45:37;98876.41;;;20.90;36.60
73692;BME280;61996;49.910;35.562;2023-02-02T18:48:40;98860.38;;;20.90;36.20
73692;BME280;61996;49.910;35.562;2023-02-02T18:51:43;98869.22;;;20.91;36.38
73692;BME280;61996;49.910;35.562;2023-02-02T18:54:48;98867.19;;;20.93;36.19
73692;BME280;61996;49.910;35.562;2023-02-02T18:57:51;98863.03;;;20.90;36.52
73692;BME280;61996;49.910;35.562;2023-02-02T19:00:53;98869.22;;;20.91;36.45
73692;BME280;61996;49.910;35.562;2023-02-02T19:03:56;98870.41;;;20.88;36.48
73692;BME280;61996;49.910;35.562;2023-02-02T19:06:59;98878.94;;;20.84;36.51
73692;BME280;61996;49.910;35.562;2023-02-02T19:10:22;98873.56;;;20.92;36.45
73692;BME280;61996;49.910;35.562;2023-02-02T19:13:26;98883.41;;;20.91;36.27
73692;BME280;61996;49.910;35.562;2023-02-02T19:16:30;98878.41;;;20.96;36.28
73692;BME280;61996;49.910;35.562;2023-02-02T19:19:34;98888.91;;;20.98;36.20
73692;BME280;61996;49.910;35.562;2023-02-02T19:22:40;98881.25;;;20.95;36.26
73692;BME280;61996;49.910;35.562;2023-02-02T19:25:45;98886.06;;;20.99;36.14
73692;BME280;61996;49.910;35.562;2023-02-02T19:28:52;98876.91;;;21.02;36.03
73692;BME280;61996;49.910;35.562;2023-02-02T19:31:55;98872.69;;;20.99;36.13
73692;BME280;61996;49.910;35.562;2023-02-02T19:35:01;98884.75;;;20.95;36.11
73692;BME280;61996;49.910;35.562;2023-02-02T19:38:08;98884.25;;;20.92;36.26
73692;BME280;61996;49.910;35.562;2023-02-02T19:41:14;98882.94;;;20.88;36.41
73692;BME280;61996;49.910;35.562;2023-02-02T19:44:19;98886.94;;;20.84;36.63
73692;BME280;61996;49.910;35.562;2023-02-02T19:47:23;98884.13;;;20.77;36.58
73692;BME280;61996;49.910;35.562;2023-02-02T19:50:31;98882.63;;;20.74;36.55